createdAt,value
2022-09-05T00:02:06.886Z,2.70
2022-09-05T00:05:16.978Z,2.50
2022-09-05T00:08:22.822Z,2.90
2022-09-05T00:11:42.548Z,2.60
2022-09-05T00:15:16.017Z,2.80
2022-09-05T00:18:35.337Z,2.95
2022-09-05T00:24:27.482Z,3.28
2022-09-05T00:24:34.657Z,3.10
2022-09-05T00:27:00.327Z,2.78
2022-09-05T00:31:06.871Z,3.25
2022-09-05T00:32:56.460Z,3.38
2022-09-05T00:35:32.223Z,2.80
2022-09-05T00:38:11.435Z,3.20
2022-09-05T00:40:52.856Z,3.30
2022-09-05T00:43:24.612Z,3.00
2022-09-05T00:45:56.260Z,2.88
2022-09-05T00:48:38.554Z,3.55
2022-09-05T00:51:34.917Z,3.65
2022-09-05T00:54:27.112Z,3.05
2022-09-05T00:57:59.970Z,3.08
2022-09-05T01:00:55.849Z,3.00
2022-09-05T01:04:40.050Z,3.10
2022-09-05T01:07:46.817Z,2.75
2022-09-05T01:10:50.890Z,2.85
2022-09-05T01:13:46.575Z,3.22
2022-09-05T01:16:19.398Z,3.10
2022-09-05T01:19:19.923Z,3.45
2022-09-05T01:22:32.612Z,3.10
2022-09-05T01:25:29.402Z,2.85
2022-09-05T01:29:14.019Z,2.75
2022-09-05T01:35:28.677Z,2.78
2022-09-05T01:38:10.627Z,2.88
2022-09-05T01:41:17.994Z,2.78
2022-09-05T01:44:20.096Z,2.85
2022-09-05T01:47:06.093Z,3.00
2022-09-05T01:50:05.126Z,2.80
2022-09-05T01:53:12.190Z,2.92
2022-09-05T01:56:35.573Z,2.58
2022-09-05T01:59:13.849Z,2.90
2022-09-05T02:02:05.722Z,3.00
2022-09-05T02:04:54.362Z,3.28
2022-09-05T02:08:07.667Z,3.25
2022-09-05T02:11:05.147Z,3.80
2022-09-05T02:13:34.706Z,3.30
2022-09-05T02:16:52.794Z,3.55
2022-09-05T02:19:26.385Z,3.40
2022-09-05T02:22:08.766Z,3.45
2022-09-05T02:24:59.810Z,3.60
2022-09-05T02:28:17.878Z,3.85
2022-09-05T02:31:19.460Z,3.50
2022-09-05T02:34:12.298Z,3.63
2022-09-05T02:38:31.724Z,3.13
2022-09-05T02:45:06.826Z,3.60
2022-09-05T02:45:11.899Z,3.03
2022-09-05T02:46:46.711Z,3.30
2022-09-05T02:52:03.847Z,3.58
2022-09-05T02:57:25.826Z,3.42
2022-09-05T02:58:06.264Z,3.80
2022-09-05T02:59:08.104Z,3.72
2022-09-05T03:01:49.687Z,4.10
2022-09-05T03:04:46.139Z,4.10
2022-09-05T03:07:48.237Z,3.83
2022-09-05T03:11:05.540Z,3.50
2022-09-05T03:14:18.472Z,3.28
2022-09-05T03:17:00.321Z,3.35
2022-09-05T03:20:17.460Z,3.40
2022-09-05T03:23:15.613Z,3.20
2022-09-05T03:26:13.360Z,3.28
2022-09-05T03:29:08.129Z,3.60
2022-09-05T03:31:52.984Z,3.22
2022-09-05T03:35:09.482Z,3.10
2022-09-05T03:38:43.320Z,3.53
2022-09-05T03:41:55.346Z,3.40
2022-09-05T03:45:07.365Z,3.50
2022-09-05T03:48:28.149Z,3.00
2022-09-05T03:55:38.746Z,3.08
2022-09-05T03:57:19.161Z,3.33
2022-09-05T03:57:42.753Z,2.88
2022-09-05T04:00:42.919Z,2.90
2022-09-05T04:08:07.497Z,3.28
2022-09-05T04:08:19.249Z,3.10
2022-09-05T04:09:51.460Z,3.70
2022-09-05T04:12:48.178Z,3.70
2022-09-05T04:15:30.802Z,2.80
2022-09-05T04:18:17.300Z,2.83
2022-09-05T04:21:07.502Z,3.22
2022-09-05T04:24:12.977Z,3.20
2022-09-05T04:26:56.748Z,3.10
2022-09-05T04:29:40.497Z,3.25
2022-09-05T04:32:33.214Z,3.30
2022-09-05T04:35:03.091Z,3.33
2022-09-05T04:37:58.693Z,3.40
2022-09-05T04:40:51.639Z,2.90
2022-09-05T04:43:18.420Z,3.03
2022-09-05T04:45:50.198Z,3.00
2022-09-05T04:48:27.179Z,3.38
2022-09-05T04:51:59.889Z,3.20
2022-09-05T04:54:43.335Z,3.33
2022-09-05T04:57:21.401Z,3.15
2022-09-05T05:02:35.105Z,3.25
2022-09-05T05:06:00.708Z,3.67
2022-09-05T05:06:16.111Z,3.53
2022-09-05T05:08:58.638Z,3.40
2022-09-05T05:17:29.820Z,3.42
2022-09-05T05:18:12.503Z,3.35
2022-09-05T05:18:39.729Z,4.55
2022-09-05T05:21:08.526Z,4.10
2022-09-05T05:23:40.814Z,4.40
2022-09-05T05:26:13.491Z,4.07
2022-09-05T05:29:09.685Z,4.40
2022-09-05T05:31:54.734Z,4.15
2022-09-05T05:34:31.137Z,3.53
2022-09-05T05:37:18.144Z,3.42
2022-09-05T05:39:58.382Z,4.18
2022-09-05T05:42:25.300Z,4.10
2022-09-05T05:44:59.231Z,3.90
2022-09-05T05:47:41.686Z,3.65
2022-09-05T05:50:49.960Z,3.93
2022-09-05T05:53:43.000Z,3.90
2022-09-05T05:56:53.283Z,4.15
2022-09-05T05:59:56.340Z,3.63
2022-09-05T06:02:41.662Z,4.22
2022-09-05T06:05:45.731Z,3.97
2022-09-05T06:14:51.621Z,3.90
2022-09-05T06:14:59.315Z,4.50
2022-09-05T06:15:50.776Z,4.32
2022-09-05T06:19:08.107Z,5.28
2022-09-05T06:22:10.650Z,5.10
2022-09-05T06:25:16.990Z,5.13
2022-09-05T06:28:40.960Z,5.50
2022-09-05T06:31:30.697Z,5.25
2022-09-05T06:34:33.044Z,5.43
2022-09-05T06:37:41.614Z,5.53
2022-09-05T06:40:34.405Z,5.72
2022-09-05T06:43:46.067Z,6.40
2022-09-05T06:47:22.522Z,5.90
2022-09-05T06:49:57.282Z,6.00
2022-09-05T06:52:35.915Z,5.70
2022-09-05T06:55:59.698Z,6.28
2022-09-05T06:59:09.978Z,6.00
2022-09-05T07:02:00.520Z,5.85
2022-09-05T07:05:38.426Z,6.35
2022-09-05T07:07:50.588Z,6.53
2022-09-05T07:10:39.401Z,5.97
2022-09-05T07:13:28.610Z,7.07
2022-09-05T07:16:13.461Z,6.55
2022-09-05T07:19:03.322Z,5.97
2022-09-05T07:21:55.851Z,6.03
2022-09-05T07:24:53.998Z,7.03
2022-09-05T07:28:26.422Z,5.68
2022-09-05T07:30:33.978Z,6.30
2022-09-05T07:33:03.764Z,6.47
2022-09-05T07:35:41.695Z,5.95
2022-09-05T07:38:18.949Z,6.53
2022-09-05T07:41:05.904Z,7.07
2022-09-05T07:43:39.556Z,6.32
2022-09-05T07:46:23.221Z,6.47
2022-09-05T07:48:56.501Z,6.18
2022-09-05T07:56:17.185Z,5.93
2022-09-05T07:56:50.175Z,6.78
2022-09-05T07:57:30.745Z,5.68
2022-09-05T08:00:26.885Z,7.07
2022-09-05T08:03:01.025Z,5.85
2022-09-05T08:05:47.973Z,6.13
2022-09-05T08:08:23.050Z,5.82
2022-09-05T08:11:23.610Z,5.47
2022-09-05T08:13:42.498Z,5.55
2022-09-05T08:16:19.500Z,5.40
2022-09-05T08:18:54.288Z,4.95
2022-09-05T08:21:41.918Z,5.40
2022-09-05T08:24:39.162Z,5.60
2022-09-05T08:27:17.654Z,5.50
2022-09-05T08:30:24.306Z,5.65
2022-09-05T08:33:19.234Z,5.15
2022-09-05T08:35:59.371Z,5.18
2022-09-05T08:38:35.976Z,4.60
2022-09-05T08:41:49.738Z,5.55
2022-09-05T08:46:43.162Z,5.00
2022-09-05T08:47:59.450Z,4.80
2022-09-05T08:50:57.595Z,4.55
2022-09-05T08:53:59.985Z,4.70
2022-09-05T08:57:09.534Z,5.18
2022-09-05T09:00:04.312Z,4.88
2022-09-05T09:03:11.703Z,5.05
2022-09-05T09:06:16.444Z,5.20
2022-09-05T09:09:09.821Z,4.80
2022-09-05T09:11:53.314Z,4.55
2022-09-05T09:14:37.627Z,4.38
2022-09-05T09:17:42.909Z,4.55
2022-09-05T09:20:55.871Z,4.93
2022-09-05T09:23:48.523Z,4.80
2022-09-05T09:26:37.243Z,4.93
2022-09-05T09:29:10.228Z,5.00
2022-09-05T09:34:26.197Z,4.80
2022-09-05T09:39:44.357Z,4.13
2022-09-05T09:42:33.317Z,4.00
2022-09-05T09:45:29.029Z,4.18
2022-09-05T09:48:14.441Z,4.30
2022-09-05T09:51:19.446Z,4.05
2022-09-05T09:54:24.699Z,3.85
2022-09-05T09:57:31.581Z,3.63
2022-09-05T10:00:08.085Z,3.65
2022-09-05T10:07:26.980Z,3.40
2022-09-05T10:10:44.488Z,3.30
2022-09-05T10:10:51.120Z,3.70
2022-09-05T10:12:39.348Z,3.50
2022-09-05T10:15:57.029Z,3.78
2022-09-05T10:19:17.372Z,3.47
2022-09-05T10:22:38.561Z,3.53
2022-09-05T10:25:28.077Z,3.55
2022-09-05T10:28:07.811Z,3.50
2022-09-05T10:32:39.076Z,3.38
2022-09-05T10:35:13.823Z,3.53
2022-09-05T10:37:13.118Z,3.60
2022-09-05T10:39:45.441Z,3.38
2022-09-05T10:42:43.457Z,3.65
2022-09-05T10:45:48.489Z,3.50
2022-09-05T10:48:53.164Z,3.10
2022-09-05T10:51:37.604Z,3.50
2022-09-05T10:54:26.093Z,3.15
2022-09-05T10:57:31.125Z,3.17
2022-09-05T11:02:21.799Z,2.70
2022-09-05T11:03:23.045Z,2.75
2022-09-05T11:05:59.562Z,2.70
2022-09-05T11:08:58.930Z,2.70
2022-09-05T11:11:34.116Z,2.70
2022-09-05T11:14:07.332Z,3.47
2022-09-05T11:17:07.293Z,2.85
2022-09-05T11:20:08.592Z,2.80
2022-09-05T11:22:48.030Z,3.00
2022-09-05T11:25:40.157Z,2.75
2022-09-05T11:28:57.550Z,2.70
2022-09-05T11:34:24.752Z,2.50
2022-09-05T11:39:46.886Z,2.60
2022-09-05T11:40:02.336Z,2.88
2022-09-05T11:41:25.071Z,2.70
2022-09-05T11:44:33.331Z,2.60
2022-09-05T11:47:44.639Z,2.42
2022-09-05T11:50:52.652Z,2.67
2022-09-05T11:53:57.367Z,2.80
2022-09-05T11:56:52.541Z,2.50
2022-09-05T12:00:18.546Z,2.50
2022-09-05T12:03:38.509Z,2.50
2022-09-05T12:06:22.160Z,2.55
2022-09-05T12:09:10.786Z,2.33
2022-09-05T12:12:19.342Z,2.42
2022-09-05T12:15:12.016Z,2.53
2022-09-05T12:18:19.568Z,2.63
2022-09-05T12:21:25.375Z,2.17
2022-09-05T12:25:16.146Z,2.58
2022-09-05T12:27:41.954Z,2.70
2022-09-05T12:35:45.533Z,2.67
2022-09-05T12:40:06.644Z,2.30
2022-09-05T12:40:55.232Z,2.38
2022-09-05T12:42:10.851Z,2.42
2022-09-05T12:42:56.389Z,2.40
2022-09-05T12:45:58.117Z,2.90
2022-09-05T12:48:55.845Z,2.47
2022-09-05T12:51:46.847Z,3.03
2022-09-05T12:54:34.735Z,2.88
2022-09-05T13:01:17.458Z,4.35
2022-09-05T13:02:56.720Z,4.60
2022-09-05T13:03:27.136Z,2.30
2022-09-05T13:06:02.623Z,2.92
2022-09-05T13:08:59.959Z,3.57
2022-09-05T13:14:49.836Z,3.15
2022-09-05T13:15:14.063Z,2.13
2022-09-05T13:17:50.664Z,2.13
2022-09-05T13:23:23.418Z,2.25
2022-09-05T13:26:17.509Z,2.28
2022-09-05T13:29:10.342Z,2.15
2022-09-05T13:37:56.215Z,1.92
2022-09-05T13:38:12.202Z,2.08
2022-09-05T13:41:29.432Z,2.10
2022-09-05T13:44:00.394Z,2.00
2022-09-05T13:47:29.433Z,2.20
2022-09-05T13:50:36.496Z,1.92
2022-09-05T13:53:18.821Z,2.08
2022-09-05T13:56:24.006Z,2.20
2022-09-05T13:59:09.456Z,2.13
2022-09-05T14:02:25.816Z,2.10
2022-09-05T14:05:20.782Z,2.00
2022-09-05T14:08:08.347Z,2.30
2022-09-05T14:11:24.424Z,2.08
2022-09-05T14:15:08.248Z,2.30
2022-09-05T14:20:27.210Z,2.20
2022-09-05T14:23:07.916Z,2.10
2022-09-05T14:25:52.311Z,2.10
2022-09-05T14:28:28.212Z,1.90
2022-09-05T14:33:31.113Z,2.22
2022-09-05T14:37:42.763Z,2.45
2022-09-05T14:38:04.393Z,2.50
2022-09-05T14:41:20.750Z,2.25
2022-09-05T14:43:57.011Z,2.45
2022-09-05T14:46:45.412Z,2.38
2022-09-05T14:49:34.532Z,2.33
2022-09-05T14:52:24.705Z,2.60
2022-09-05T15:02:43.149Z,2.38
2022-09-05T15:02:44.170Z,2.38
2022-09-05T15:06:37.456Z,2.67
2022-09-05T15:11:47.251Z,2.25
2022-09-05T15:12:26.219Z,2.10
2022-09-05T15:15:13.330Z,2.45
2022-09-05T15:20:31.424Z,2.40
2022-09-05T15:22:59.747Z,2.40
2022-09-05T15:26:17.073Z,2.30
2022-09-05T15:29:04.235Z,2.30
2022-09-05T15:31:40.238Z,2.10
2022-09-05T15:34:26.353Z,2.50
2022-09-05T15:37:09.054Z,2.50
2022-09-05T15:39:43.952Z,2.55
2022-09-05T15:42:32.487Z,2.80
2022-09-05T15:45:10.703Z,2.58
2022-09-05T15:47:47.306Z,2.28
2022-09-05T15:50:22.433Z,2.47
2022-09-05T15:52:55.390Z,2.55
2022-09-05T15:55:26.764Z,2.83
2022-09-05T15:58:05.180Z,2.47
2022-09-05T16:00:51.492Z,2.40
2022-09-05T16:06:53.834Z,2.53
2022-09-05T16:10:36.222Z,2.42
2022-09-05T16:10:45.443Z,2.60
2022-09-05T16:12:21.013Z,2.50
2022-09-05T16:15:23.141Z,2.53
2022-09-05T16:23:20.279Z,2.67
2022-09-05T16:23:28.977Z,2.33
2022-09-05T16:23:40.589Z,2.90
2022-09-05T16:26:32.196Z,2.65
2022-09-05T16:29:11.551Z,2.72
2022-09-05T16:31:50.327Z,3.28
2022-09-05T16:34:29.046Z,2.90
2022-09-05T16:37:08.433Z,2.70
2022-09-05T16:39:45.280Z,2.65
2022-09-05T16:42:46.163Z,2.67
2022-09-05T16:45:19.902Z,2.75
2022-09-05T16:48:06.814Z,2.58
2022-09-05T16:51:13.533Z,2.45
2022-09-05T16:53:58.302Z,2.60
2022-09-05T16:56:54.065Z,2.83
2022-09-05T16:59:28.440Z,2.63
2022-09-05T17:02:46.615Z,2.60
2022-09-05T17:05:36.088Z,2.80
2022-09-05T17:08:24.076Z,2.38
2022-09-05T17:11:04.849Z,2.67
2022-09-05T17:14:09.613Z,2.70
2022-09-05T17:16:45.339Z,2.80
2022-09-05T17:19:22.118Z,2.95
2022-09-05T17:24:12.422Z,2.83
2022-09-05T17:29:30.258Z,2.60
2022-09-05T17:30:33.145Z,2.70
2022-09-05T17:31:57.703Z,3.08
2022-09-05T17:34:46.709Z,2.65
2022-09-05T17:37:36.939Z,2.70
2022-09-05T17:40:36.433Z,2.70
2022-09-05T17:43:28.230Z,2.65
2022-09-05T17:46:19.141Z,2.80
2022-09-05T17:49:03.316Z,3.55
2022-09-05T17:51:51.389Z,3.30
2022-09-05T17:54:37.643Z,2.90
2022-09-05T17:57:29.411Z,3.03
2022-09-05T18:00:12.094Z,2.90
2022-09-05T18:02:56.425Z,2.97
2022-09-05T18:06:03.624Z,2.92
2022-09-05T18:08:45.715Z,2.97
2022-09-05T18:11:28.302Z,4.47
2022-09-05T18:14:29.150Z,3.53
2022-09-05T18:17:36.365Z,3.55
2022-09-05T18:19:49.490Z,3.90
2022-09-05T18:22:30.710Z,3.30
2022-09-05T18:28:32.235Z,3.40
2022-09-05T18:31:41.233Z,3.45
2022-09-05T18:34:32.031Z,3.00
2022-09-05T18:36:59.486Z,3.40
2022-09-05T18:39:27.263Z,3.38
2022-09-05T18:42:25.984Z,3.58
2022-09-05T18:44:59.637Z,3.33
2022-09-05T18:47:51.108Z,3.40
2022-09-05T18:50:27.865Z,3.45
2022-09-05T18:53:09.463Z,3.95
2022-09-05T18:56:12.327Z,3.42
2022-09-05T18:59:09.555Z,3.20
2022-09-05T19:02:00.721Z,3.50
2022-09-05T19:06:58.382Z,3.50
2022-09-05T19:09:37.967Z,3.58
2022-09-05T19:12:33.411Z,3.40
2022-09-05T19:15:08.518Z,3.45
2022-09-05T19:17:38.836Z,3.72
2022-09-05T19:20:33.134Z,3.17
2022-09-05T19:23:21.689Z,3.33
2022-09-05T19:26:09.794Z,3.63
2022-09-05T19:35:24.335Z,3.38
2022-09-05T19:36:52.443Z,3.75
2022-09-05T19:37:25.520Z,3.88
2022-09-05T19:37:37.329Z,3.97
2022-09-05T19:43:15.651Z,4.38
2022-09-05T19:47:35.661Z,4.22
2022-09-05T19:47:41.035Z,3.90
2022-09-05T19:48:37.290Z,4.30
2022-09-05T19:51:18.698Z,3.70
2022-09-05T19:54:04.643Z,4.22
2022-09-05T19:56:46.824Z,4.07
2022-09-05T19:59:22.702Z,4.25
2022-09-05T20:01:51.844Z,4.30
2022-09-05T20:04:20.642Z,3.78
2022-09-05T20:06:50.282Z,4.05
2022-09-05T20:09:24.724Z,4.40
2022-09-05T20:11:59.105Z,4.28
2022-09-05T20:14:33.676Z,4.45
2022-09-05T20:17:23.392Z,3.95
2022-09-05T20:20:30.528Z,4.35
2022-09-05T20:23:00.993Z,4.30
2022-09-05T20:25:47.785Z,4.32
2022-09-05T20:28:24.087Z,4.47
2022-09-05T20:31:08.906Z,4.88
2022-09-05T20:33:51.683Z,4.55
2022-09-05T20:43:16.238Z,4.63
2022-09-05T20:43:28.334Z,4.90
2022-09-05T20:43:29.407Z,4.88
2022-09-05T20:46:25.935Z,5.32
2022-09-05T20:54:10.639Z,4.32
2022-09-05T20:54:12.793Z,5.10
2022-09-05T20:54:35.039Z,4.93
2022-09-05T20:57:22.913Z,5.15
2022-09-05T20:59:50.292Z,5.93
2022-09-05T21:02:32.540Z,4.85
2022-09-05T21:05:06.831Z,5.03
2022-09-05T21:07:59.525Z,5.38
2022-09-05T21:10:47.177Z,5.47
2022-09-05T21:13:28.925Z,5.00
2022-09-05T21:15:58.218Z,4.50
2022-09-05T21:18:34.080Z,6.10
2022-09-05T21:21:10.298Z,5.20
2022-09-05T21:24:16.426Z,5.40
2022-09-05T21:26:50.834Z,4.97
2022-09-05T21:29:33.330Z,5.25
2022-09-05T21:32:10.325Z,5.80
2022-09-05T21:34:48.642Z,5.22
2022-09-05T21:37:18.389Z,5.18
2022-09-05T21:39:58.793Z,5.05
2022-09-05T21:46:23.756Z,6.03
2022-09-05T21:47:44.482Z,5.43
2022-09-05T21:48:17.385Z,5.10
2022-09-05T21:50:51.383Z,5.20
2022-09-05T21:58:22.120Z,5.13
2022-09-05T21:59:22.460Z,5.05
2022-09-05T21:59:46.484Z,5.07
2022-09-05T22:02:16.786Z,4.90
2022-09-05T22:04:44.111Z,5.63
2022-09-05T22:07:21.669Z,5.25
2022-09-05T22:10:00.880Z,5.93
2022-09-05T22:12:33.735Z,5.80
2022-09-05T22:15:08.664Z,5.57
2022-09-05T22:17:51.065Z,6.32
2022-09-05T22:20:20.974Z,5.80
2022-09-05T22:22:56.525Z,5.80
2022-09-05T22:25:30.020Z,6.00
2022-09-05T22:30:38.207Z,5.35
2022-09-05T22:33:06.631Z,5.90
2022-09-05T22:35:35.703Z,5.45
2022-09-05T22:38:12.444Z,5.43
2022-09-05T22:40:49.362Z,5.47
2022-09-05T22:43:16.615Z,5.32
2022-09-05T22:45:44.579Z,5.70
2022-09-05T22:48:14.999Z,5.25
2022-09-05T22:50:43.212Z,5.07
2022-09-05T22:53:11.463Z,5.65
2022-09-05T22:55:43.770Z,5.32
2022-09-05T22:58:14.680Z,6.10
2022-09-05T23:00:44.399Z,6.13
2022-09-05T23:03:11.294Z,6.15
2022-09-05T23:05:38.242Z,5.80
2022-09-05T23:08:06.679Z,6.15
2022-09-05T23:10:35.398Z,5.80
2022-09-05T23:13:10.674Z,5.40
2022-09-05T23:15:38.504Z,5.22
2022-09-05T23:18:05.917Z,5.30
2022-09-05T23:20:33.920Z,5.13
2022-09-05T23:23:05.619Z,6.05
2022-09-05T23:25:34.122Z,5.72
2022-09-05T23:28:09.779Z,5.60
2022-09-05T23:30:38.377Z,6.10
2022-09-05T23:33:10.264Z,5.65
2022-09-05T23:35:37.751Z,6.55
2022-09-05T23:38:10.537Z,5.85
2022-09-05T23:40:38.585Z,6.22
2022-09-05T23:43:05.871Z,6.22
2022-09-05T23:45:32.884Z,6.10
2022-09-05T23:48:00.428Z,6.47
2022-09-05T23:50:28.373Z,6.45
2022-09-05T23:52:55.315Z,6.38
2022-09-05T23:55:23.360Z,7.00
2022-09-05T23:57:50.335Z,5.60
